createdAt,value
2023-04-03T00:01:26.004Z,2.34
2023-04-03T00:11:32.321Z,2.36
2023-04-03T00:21:56.747Z,2.33
2023-04-03T00:32:20.803Z,2.23
2023-04-03T00:42:37.202Z,2.06
2023-04-03T00:52:42.284Z,1.88
2023-04-03T01:03:26.535Z,1.75
2023-04-03T01:14:16.317Z,1.65
2023-04-03T01:24:55.363Z,1.58
2023-04-03T01:35:29.491Z,1.54
2023-04-03T01:45:43.777Z,1.45
2023-04-03T01:56:46.574Z,1.36
2023-04-03T02:06:55.007Z,1.33
2023-04-03T02:17:17.311Z,1.26
2023-04-03T02:27:56.936Z,1.19
2023-04-03T02:38:42.226Z,1.08
2023-04-03T02:48:58.479Z,0.97
2023-04-03T03:00:09.645Z,0.89
2023-04-03T03:10:32.606Z,0.87
2023-04-03T03:21:19.661Z,0.83
2023-04-03T03:31:37.925Z,0.84
2023-04-03T03:42:06.552Z,0.83
2023-04-03T03:53:06.723Z,0.79
2023-04-03T04:04:15.398Z,0.69
2023-04-03T04:15:25.775Z,0.64
2023-04-03T04:26:11.459Z,0.45
2023-04-03T04:37:13.338Z,0.51
2023-04-03T04:47:50.637Z,0.60
2023-04-03T04:58:28.842Z,0.59
2023-04-03T05:09:27.873Z,0.60
2023-04-03T05:20:24.975Z,0.52
2023-04-03T05:31:30.570Z,0.59
2023-04-03T05:42:24.103Z,0.54
2023-04-03T05:52:54.271Z,0.53
2023-04-03T06:03:44.771Z,0.49
2023-04-03T06:14:30.126Z,0.49
2023-04-03T06:26:03.867Z,0.33
2023-04-03T06:36:42.471Z,0.39
2023-04-03T06:47:30.261Z,0.50
2023-04-03T06:58:07.925Z,0.72
2023-04-03T07:08:31.081Z,0.76
2023-04-03T07:19:22.130Z,0.87
2023-04-03T07:29:41.944Z,0.89
2023-04-03T07:40:48.158Z,1.02
2023-04-03T07:51:36.033Z,1.49
2023-04-03T08:02:58.847Z,1.90
2023-04-03T08:13:27.986Z,1.79
2023-04-03T08:24:29.428Z,1.53
2023-04-03T08:35:40.501Z,1.61
2023-04-03T08:46:53.094Z,2.06
2023-04-03T08:58:10.090Z,3.03
2023-04-03T09:09:47.830Z,2.56
2023-04-03T09:20:28.615Z,2.23
2023-04-03T09:31:00.493Z,2.03
2023-04-03T09:41:42.565Z,2.19
2023-04-03T09:53:00.390Z,2.19
2023-04-03T10:04:47.233Z,2.45
2023-04-03T10:15:43.257Z,2.61
2023-04-03T10:27:20.967Z,2.69
2023-04-03T10:38:33.313Z,2.62
2023-04-03T10:49:59.735Z,2.61
2023-04-03T11:01:35.462Z,2.57
2023-04-03T11:12:30.792Z,2.61
2023-04-03T11:23:50.923Z,2.58
2023-04-03T11:34:29.198Z,2.20
2023-04-03T11:45:36.554Z,2.32
2023-04-03T11:56:04.749Z,2.81
2023-04-03T12:06:52.713Z,2.78
2023-04-03T12:18:01.976Z,2.96
2023-04-03T12:28:25.128Z,3.13
2023-04-03T12:39:56.002Z,3.19
2023-04-03T12:51:18.003Z,3.39
2023-04-03T13:02:25.794Z,3.45
2023-04-03T13:13:36.416Z,3.88
2023-04-03T13:24:17.457Z,3.87
2023-04-03T13:35:45.339Z,3.79
2023-04-03T13:46:53.093Z,3.90
2023-04-03T13:57:25.761Z,3.93
2023-04-03T14:08:08.399Z,3.66
2023-04-03T14:18:42.218Z,3.28
2023-04-03T14:28:56.920Z,3.77
2023-04-03T14:39:37.163Z,4.22
2023-04-03T14:50:24.277Z,4.44
2023-04-03T15:01:14.025Z,4.55
2023-04-03T15:11:48.629Z,4.26
2023-04-03T15:22:40.202Z,4.77
2023-04-03T15:33:41.884Z,4.25
2023-04-03T15:44:16.588Z,3.45
2023-04-03T15:54:56.824Z,2.92
2023-04-03T16:06:22.920Z,2.55
2023-04-03T16:17:36.286Z,2.24
2023-04-03T16:28:55.813Z,1.84
2023-04-03T16:39:24.093Z,1.77
2023-04-03T16:49:35.283Z,1.65
2023-04-03T16:59:39.020Z,1.38
2023-04-03T17:09:42.939Z,1.20
2023-04-03T17:19:46.298Z,1.14
2023-04-03T17:29:49.733Z,1.02
2023-04-03T17:39:52.805Z,0.97
2023-04-03T17:49:56.610Z,0.92
2023-04-03T17:59:59.693Z,0.86
2023-04-03T18:10:05.299Z,0.73
2023-04-03T18:20:10.347Z,0.68
2023-04-03T18:30:17.023Z,0.65
2023-04-03T18:40:20.761Z,0.60
2023-04-03T18:50:23.827Z,0.46
2023-04-03T19:00:27.664Z,0.23
2023-04-03T19:10:30.936Z,0.06
2023-04-03T19:20:34.388Z,-0.07
2023-04-03T19:30:38.601Z,-0.05
2023-04-03T19:40:44.044Z,-0.01
2023-04-03T19:50:47.444Z,-0.10
2023-04-03T20:00:51.255Z,-0.19
2023-04-03T20:10:55.310Z,-0.21
2023-04-03T20:21:02.507Z,-0.19
2023-04-03T20:31:08.045Z,-0.10
2023-04-03T20:41:12.600Z,-0.07
2023-04-03T20:51:18.689Z,0.08
2023-04-03T21:01:24.157Z,0.22
2023-04-03T21:12:05.793Z,0.27
2023-04-03T21:22:09.361Z,0.25
2023-04-03T21:32:14.067Z,0.25
2023-04-03T21:42:17.825Z,0.15
2023-04-03T21:52:21.263Z,0.26
2023-04-03T22:02:27.487Z,0.31
2023-04-03T22:12:34.876Z,0.35
2023-04-03T22:22:38.393Z,0.09
2023-04-03T22:32:42.259Z,-0.21
2023-04-03T22:42:49.068Z,-0.50
2023-04-03T22:52:52.135Z,-0.88
2023-04-03T23:02:55.230Z,-1.10
2023-04-03T23:12:58.258Z,-1.27
2023-04-03T23:23:04.248Z,-1.27
2023-04-03T23:33:07.310Z,-1.13
2023-04-03T23:43:11.124Z,-1.00
2023-04-03T23:53:14.110Z,-0.78
